Flight Track Log - Related Links

Times and Time Zones

All times are in EDT time to prevent confusion due to time zone crossing. See the SWA1802 flight status page for this flight to view local times or setup timezone preferences in your user account.

Time Position Orientation Groundspeed Altitude Reporting Facility
EDT Latitude Longitude Course Direction KTS MPH feet Rate Location/Type
Thu 07:24:17 PM 41.8167 -87.7833 283° West 226 260 2,900  Level Chicago TRACON
Thu 07:24:44 PM 41.8144 -87.8117 264° West 256 295 3,300 2,360 Climbing Chicago Center
Thu 07:25:46 PM 41.7964 -87.8983 254° West 250 288 6,400 2,613 Climbing Chicago Center
Thu 07:26:48 PM 41.7875 -87.9892 263° West 246 283 8,700 2,323 Climbing Chicago Center
Thu 07:27:50 PM 41.7764 -88.0967 262° West 285 328 11,200 1,742 Climbing Chicago Center
Thu 07:28:52 PM 41.7783 -88.2278 271° West 300 345 12,300 1,694 Climbing Chicago Center
Thu 07:29:00 PM 41.9273 -88.6302 283° West  Level FlightAware Approximate
Thu 07:29:54 PM 41.7828 -88.3381 273° West 299 344 14,700  Level Chicago Center
Thu 07:30:57 PM 41.7744 -88.4622 265° West 338 389 16,500 1,680 Climbing Chicago Center
Thu 07:31:59 PM 41.7472 -88.5889 254° West 356 410 18,200 1,500 Climbing Chicago Center
Thu 07:33:01 PM 41.7133 -88.7625 255° West 401 461 19,600 1,500 Climbing Chicago Center
Thu 07:34:03 PM 41.6814 -88.9156 254° West 427 491 21,300 1,742 Climbing Chicago Center
Thu 07:35:05 PM 41.6506 -89.0708 255° West 436 502 23,200 1,645 Climbing Chicago Center
Thu 07:36:07 PM 41.6189 -89.2300 255° West 447 514 24,700 1,355 Climbing Chicago Center
Thu 07:37:09 PM 41.5869 -89.3878 255° West 446 513 26,000 1,597 Climbing Chicago Center
Thu 07:38:11 PM 41.5489 -89.5733 255° West 457 526 28,000 1,984 Climbing Chicago Center
Thu 07:39:13 PM 41.5172 -89.7275 255° West 439 505 30,100 1,776 Climbing Chicago Center
Thu 07:40:16 PM 41.4853 -89.8764 254° West 424 488 31,700 1,392 Climbing Chicago Center
Thu 07:41:18 PM 41.4547 -90.0239 255° West 417 480 33,000 1,258 Climbing Chicago Center
Thu 07:42:20 PM 41.4178 -90.1967 254° West 409 471 34,300 1,016 Climbing Chicago Center
Thu 07:43:22 PM 41.3864 -90.3403 254° West 407 468 35,100 677 Climbing Chicago Center
Thu 07:44:24 PM 41.3569 -90.4861 255° West 409 471 35,700 435 Climbing Chicago Center
Thu 07:45:26 PM 41.3375 -90.6364 260° West 415 478 36,000 145 Climbing Chicago Center
Thu 07:46:28 PM 41.3164 -90.7858 259° West 414 476 36,000  Level Chicago Center
Thu 07:47:30 PM 41.2967 -90.9328 260° West 407 468 36,000  Level Chicago Center
Thu 07:48:32 PM 41.2717 -91.1092 259° West 406 467 36,000  Level Chicago Center
Thu 07:49:34 PM 41.2519 -91.2533 260° West 400 460 36,000  Level Chicago Center
Thu 07:50:36 PM 41.2308 -91.3981 259° West 401 461 36,000  Level Chicago Center
Thu 07:51:39 PM 41.2106 -91.5419 259° West 397 457 36,000  Level Chicago Center
Thu 07:52:41 PM 41.1869 -91.7039 259° West 395 455 36,000  Level Chicago Center
Thu 07:53:43 PM 41.1664 -91.8464 259° West 397 457 36,000  Level Chicago Center
Thu 07:54:45 PM 41.1447 -91.9875 259° West 396 456 36,000  Level Chicago Center
Thu 07:55:47 PM 41.1236 -92.1297 259° West 398 458 36,000  Level Chicago Center
Thu 07:56:49 PM 41.0983 -92.2992 259° West 397 457 36,000  Level Chicago Center
Thu 07:57:51 PM 41.0769 -92.4406 259° West 396 456 36,000  Level Chicago Center
Thu 07:58:53 PM 41.0558 -92.5828 259° West 399 459 36,000  Level Chicago Center
Thu 08:03:02 PM 40.9589 -93.1967 258° West 402 463 36,000  Level Minneapolis Center
Thu 08:04:04 PM 40.9383 -93.3289 258° West 405 466 36,000  Level Minneapolis Center
Thu 08:05:06 PM 40.9153 -93.4706 258° West 404 465 36,000  Level Minneapolis Center
Thu 08:06:08 PM 40.8881 -93.6439 258° West 407 468 36,000  Level Minneapolis Center
Thu 08:07:10 PM 40.8639 -93.7875 258° West 408 470 36,000  Level Minneapolis Center
Thu 08:08:12 PM 40.8386 -93.9328 257° West 409 471 36,000  Level Minneapolis Center
Thu 08:09:14 PM 40.8142 -94.0772 257° West 408 470 36,000  Level Minneapolis Center
Thu 08:10:16 PM 40.7892 -94.2214 257° West 408 470 36,000  Level Minneapolis Center
Thu 08:11:18 PM 40.7603 -94.3944 258° West 407 468 36,000  Level Minneapolis Center
Thu 08:12:20 PM 40.7347 -94.5406 257° West 411 473 36,000  Level Minneapolis Center
Thu 08:13:22 PM 40.7053 -94.7047 257° West 415 478 36,000  Level Minneapolis Center
Thu 08:14:25 PM 40.6797 -94.8547 257° West 417 480 36,000  Level Minneapolis Center
Thu 08:15:27 PM 40.6531 -95.0031 257° West 416 479 36,000  Level Minneapolis Center
Thu 08:16:29 PM 40.6272 -95.1536 257° West 419 482 36,000  Level Minneapolis Center
Thu 08:17:31 PM 40.6003 -95.3050 257° West 421 484 36,000  Level Minneapolis Center
Thu 08:18:33 PM 40.5725 -95.4556 256° West 422 486 36,000  Level Minneapolis Center
Thu 08:19:35 PM 40.5406 -95.6367 257° West 422 486 36,000  Level Minneapolis Center
Thu 08:20:37 PM 40.5128 -95.7856 256° West 420 483 36,000  Level Minneapolis Center
Thu 08:21:39 PM 40.4853 -95.9358 257° West 420 483 36,000  Level Minneapolis Center
Thu 08:22:41 PM 40.4567 -96.0872 256° West 422 486 36,000  Level Minneapolis Center
Thu 08:23:43 PM 40.4286 -96.2383 256° West 423 487 36,000  Level Minneapolis Center
Thu 08:24:45 PM 40.4014 -96.3864 256° West 421 484 36,000  Level Minneapolis Center
Thu 08:25:47 PM 40.3728 -96.5328 256° West 416 479 36,000  Level Minneapolis Center
Thu 08:27:00 PM 40.3395 -96.7043 256° West  Level FlightAware Approximate
Thu 08:27:51 PM 40.3111 -96.8575 256° West 417 480 36,000  Level Minneapolis Center
Thu 08:28:54 PM 40.2817 -97.0047 255° West 418 481 36,000  Level Minneapolis Center
Thu 08:29:56 PM 40.2525 -97.1528 256° West 419 482 36,000  Level Minneapolis Center
Thu 08:30:58 PM 40.2228 -97.3017 255° West 421 484 36,000  Level Minneapolis Center
Thu 08:32:00 PM 40.1935 -97.4467 255° West  Level FlightAware Approximate
Thu 08:33:57 PM 40.1344 -97.7444 255° West 420 483 36,000  Level Denver Center
Thu 08:34:59 PM 40.1053 -97.8889 255° West 414 476 36,000  Level Denver Center
Thu 08:36:08 PM 40.0683 -98.0650 255° West 417 480 36,000  Level Minneapolis Center
Thu 08:37:10 PM 40.0383 -98.2094 255° West 415 478 36,000  Level Minneapolis Center
Thu 08:38:12 PM 40.0086 -98.3531 255° West 412 474 36,000  Level Minneapolis Center
Thu 08:39:00 PM 39.9903 -98.4257 255° West  Level FlightAware Approximate
Thu 08:39:14 PM 39.9786 -98.4964 255° West 411 473 36,000  Level Minneapolis Center
Thu 08:40:16 PM 39.9428 -98.6678 255° West 409 471 36,000  Level Minneapolis Center
Thu 08:41:18 PM 39.9114 -98.8131 254° West 413 475 36,000  Level Minneapolis Center
Thu 08:42:21 PM 39.8811 -98.9578 255° West 414 476 36,000  Level Minneapolis Center
Thu 08:43:23 PM 39.8489 -99.1036 254° West 416 479 36,000  Level Minneapolis Center
Thu 08:44:18 PM 39.8175 -99.2500 254° West 418 481 36,000  Level Denver Center
Thu 08:45:20 PM 39.7856 -99.3961 254° West 419 482 36,000  Level Denver Center
Thu 08:47:24 PM 39.7161 -99.6869 253° West 421 484 36,000  Level Denver Center
Thu 08:48:26 PM 39.6644 -99.8219 244° Southwest 419 482 36,000  Level Denver Center
Thu 08:49:28 PM 39.6122 -99.9667 245° Southwest 418 481 36,000  Level Denver Center
Thu 08:50:30 PM 39.5578 -100.1225 246° West 423 487 36,000  Level Denver Center
Thu 08:51:32 PM 39.5106 -100.2525 245° Southwest 419 482 36,000  Level Denver Center
Thu 08:52:34 PM 39.4506 -100.4044 243° Southwest 423 487 36,000  Level Denver Center
Thu 08:53:36 PM 39.3944 -100.5319 240° Southwest 425 489 36,000  Level Denver Center
Thu 08:54:38 PM 39.3358 -100.6542 238° Southwest 421 484 36,000  Level Denver Center
Thu 08:55:40 PM 39.2650 -100.7997 238° Southwest 427 491 36,000  Level Denver Center
Thu 08:56:42 PM 39.2053 -100.9278 239° Southwest 433 498 36,000  Level Denver Center
Thu 08:57:44 PM 39.1350 -101.0736 238° Southwest 431 496 36,000  Level Denver Center
Thu 08:58:46 PM 39.0775 -101.2017 240° Southwest 429 494 36,000  Level Denver Center
Thu 08:59:48 PM 39.0128 -101.3369 238° Southwest 429 494 36,000  Level Denver Center
Thu 09:00:50 PM 38.9419 -101.4781 237° Southwest 423 487 36,000  Level Denver Center
Thu 09:01:52 PM 38.8786 -101.6008 236° Southwest 432 497 36,000  Level Denver Center
Thu 09:02:54 PM 38.8100 -101.7453 239° Southwest 428 493 36,000  Level Denver Center
Thu 09:03:56 PM 38.7481 -101.8689 237° Southwest 431 496 36,000  Level Denver Center
Thu 09:04:58 PM 38.6739 -102.0094 236° Southwest 429 494 36,000  Level Denver Center
Thu 09:06:00 PM 38.6136 -102.1322 238° Southwest 427 491 36,000  Level Denver Center
Thu 09:07:02 PM 38.5483 -102.2811 241° Southwest 430 495 36,000  Level Denver Center
Thu 09:08:04 PM 38.5000 -102.4131 245° Southwest 431 496 36,000  Level Denver Center
Thu 09:09:06 PM 38.4539 -102.5767 250° West 439 505 36,000  Level Denver Center
Thu 09:10:20 PM 38.4217 -102.7447 256° West 438 504 36,000  Level Denver Center
Thu 09:11:22 PM 38.3858 -102.9158 255° West 448 516 36,000  Level Denver Center
Thu 09:12:24 PM 38.3564 -103.0614 256° West 446 513 36,000  Level Denver Center
Thu 09:13:26 PM 38.3203 -103.2322 255° West 449 517 36,000  Level Denver Center
Thu 09:14:28 PM 38.2889 -103.3831 255° West 444 511 36,000  Level Denver Center
Thu 09:15:30 PM 38.2583 -103.5264 255° West 440 506 36,000  Level Denver Center
Thu 09:16:32 PM 38.2225 -103.6936 255° West 440 506 36,000  Level Denver Center
Thu 09:17:34 PM 38.1922 -103.8372 255° West 441 507 36,000  Level Denver Center
Thu 09:18:36 PM 38.1550 -104.0050 254° West 444 511 36,000  Level Denver Center
Thu 09:19:38 PM 38.1242 -104.1464 255° West 438 504 36,000  Level Denver Center
Thu 09:20:40 PM 38.0894 -104.3083 255° West 430 495 36,000  Level Denver Center
Thu 09:21:42 PM 38.0581 -104.4478 254° West 431 496 36,000  Level Denver Center
Thu 09:22:44 PM 38.0222 -104.6078 254° West 425 489 36,000  Level Denver Center
Thu 09:23:46 PM 37.9931 -104.7436 255° West 419 482 36,000  Level Denver Center
Thu 09:24:48 PM 37.9569 -104.9017 254° West 421 484 36,000  Level Denver Center
Thu 09:25:50 PM 37.9269 -105.0353 254° West 416 479 36,000  Level Denver Center
Thu 09:26:52 PM 37.8908 -105.1931 254° West 418 481 36,000  Level Denver Center
Thu 09:27:54 PM 37.8589 -105.3297 254° West 422 486 36,000  Level Denver Center
Thu 09:28:56 PM 37.8211 -105.4903 253° West 427 491 36,000  Level Denver Center
Thu 09:29:58 PM 37.7892 -105.6278 254° West 427 491 36,000  Level Denver Center
Thu 09:31:00 PM 37.7519 -105.7881 254° West 425 489 36,000  Level Denver Center
Thu 09:32:02 PM 37.7203 -105.9236 254° West 423 487 36,000  Level Denver Center
Thu 09:33:04 PM 37.6833 -106.0806 253° West 418 481 36,000  Level Denver Center
Thu 09:34:06 PM 37.6528 -106.2064 253° West 417 480 36,000  Level Denver Center
Thu 09:35:09 PM 37.6147 -106.3617 253° West 415 478 36,000  Level Denver Center
Thu 09:36:11 PM 37.5844 -106.4953 254° West 416 479 36,000  Level Denver Center
Thu 09:37:13 PM 37.5444 -106.6522 252° West 421 484 36,000  Level Denver Center
Thu 09:38:15 PM 37.5114 -106.7894 253° West 428 493 36,000  Level Denver Center
Thu 09:39:17 PM 37.4731 -106.9506 253° West 431 496 36,000  Level Denver Center
Thu 09:40:19 PM 37.4406 -107.0833 253° West 419 482 36,000 387 Level Denver Center
Thu 09:41:21 PM 37.4017 -107.2361 252° West 413 475 36,800 726 Climbing Denver Center
Thu 09:42:23 PM 37.3700 -107.3650 253° West 405 466 37,500 581 Climbing Denver Center
Thu 09:43:25 PM 37.3311 -107.5169 252° West 409 471 38,000 242 Climbing Denver Center
Thu 09:44:27 PM 37.2983 -107.6492 253° West 412 474 38,000  Level Denver Center
Thu 09:45:29 PM 37.2592 -107.8000 252° West 409 471 38,000  Level Denver Center
Thu 09:46:31 PM 37.2267 -107.9300 253° West 408 470 38,000  Level Denver Center
Thu 09:47:33 PM 37.1878 -108.0822 252° West 412 474 38,000  Level Denver Center
Thu 09:48:35 PM 37.1539 -108.2122 252° West 411 473 38,000  Level Denver Center
Thu 09:49:37 PM 37.1144 -108.3653 252° West 415 478 38,000  Level Denver Center
Thu 09:50:39 PM 37.0806 -108.4933 252° West 409 471 38,000  Level Denver Center
Thu 09:51:41 PM 37.0411 -108.6428 252° West 406 467 38,000  Level Denver Center
Thu 09:52:43 PM 37.0078 -108.7697 252° West 404 465 38,000  Level Denver Center
Thu 09:53:45 PM 36.9694 -108.9164 252° West 400 460 38,000  Level Denver Center
Thu 09:54:47 PM 36.9356 -109.0428 251° West 402 463 38,000  Level Denver Center
Thu 09:55:49 PM 36.9011 -109.1681 251° West 401 461 38,000  Level Denver Center
Thu 09:56:51 PM 36.8614 -109.3167 252° West 404 465 38,000  Level Denver Center
Thu 09:57:53 PM 36.8275 -109.4422 251° West 403 464 38,000  Level Denver Center
Thu 09:58:55 PM 36.7869 -109.5908 251° West 405 466 38,000  Level Denver Center
Thu 09:59:57 PM 36.7525 -109.7172 251° West 405 466 38,000  Level Denver Center
Thu 10:00:59 PM 36.7119 -109.8653 251° West 405 466 38,000  Level Denver Center
Thu 10:02:01 PM 36.6758 -109.9917 250° West 406 467 38,000  Level Denver Center
Thu 10:03:03 PM 36.6347 -110.1389 251° West 404 465 38,000  Level Denver Center
Thu 10:04:04 PM 36.5964 -110.2742 251° West 406 467 38,000  Level Denver Center
Thu 10:05:06 PM 36.5606 -110.4072 252° West 406 467 38,000  Level Denver Center
Thu 10:06:08 PM 36.5225 -110.5394 250° West 405 466 38,000  Level Denver Center
Thu 10:07:10 PM 36.4861 -110.6703 251° West 403 464 38,000  Level Denver Center
Thu 10:08:12 PM 36.4481 -110.8017 250° West 404 465 38,000  Level Denver Center
Thu 10:09:14 PM 36.4025 -110.9597 250° West 405 466 38,000  Level Denver Center
Thu 10:10:16 PM 36.3656 -111.0894 251° West 402 463 38,000  Level Denver Center
Thu 10:11:18 PM 36.3281 -111.2186 250° West 400 460 38,000  Level Denver Center
Thu 10:12:32 PM 36.2808 -111.3708 249° West 395 455 38,000  Level Denver Center
Thu 10:13:34 PM 36.2372 -111.4961 247° West 395 455 38,000  Level Denver Center
Thu 10:15:22 PM 36.1567 -111.7242 246° West 402 463 38,000  Level Los Angeles Center
Thu 10:16:24 PM 36.1122 -111.8519 247° West 404 465 38,000  Level Los Angeles Center
Thu 10:17:26 PM 36.0631 -111.9933 247° West 405 466 38,000  Level Los Angeles Center
Thu 10:18:27 PM 36.0189 -112.1183 246° West 401 461 38,000  Level Los Angeles Center
Thu 10:19:29 PM 35.9744 -112.2422 246° West 397 457 38,000  Level Los Angeles Center
Thu 10:20:31 PM 35.9303 -112.3667 246° West 398 458 38,000  Level Los Angeles Center
Thu 10:21:33 PM 35.8858 -112.4919 246° West 402 463 38,000  Level Los Angeles Center
Thu 10:22:34 PM 35.8325 -112.6400 246° West 397 457 38,000  Level Los Angeles Center
Thu 10:23:36 PM 35.7878 -112.7639 246° West 399 459 38,000  Level Los Angeles Center
Thu 10:24:38 PM 35.7442 -112.8889 247° West 402 463 38,000  Level Los Angeles Center
Thu 10:25:40 PM 35.6992 -113.0117 246° West 400 460 38,000  Level Los Angeles Center
Thu 10:26:42 PM 35.6533 -113.1331 245° Southwest 391 450 38,000  Level Los Angeles Center
Thu 10:27:43 PM 35.6014 -113.2758 246° West 394 453 38,000  Level Los Angeles Center
Thu 10:28:45 PM 35.5556 -113.4025 246° West 404 465 38,000  Level Los Angeles Center
Thu 10:29:59 PM 35.5111 -113.5242 246° West 399 459 38,000  Level Los Angeles Center
Thu 10:31:01 PM 35.4558 -113.6722 245° Southwest 402 463 38,000  Level Los Angeles Center
Thu 10:32:03 PM 35.3994 -113.8219 245° Southwest 406 467 38,000  Level Los Angeles Center
Thu 10:33:05 PM 35.3569 -113.9358 245° Southwest 408 470 38,000  Level Los Angeles Center
Thu 10:34:06 PM 35.3100 -114.0611 245° Southwest 406 467 38,000  Level Los Angeles Center
Thu 10:35:20 PM 35.2539 -114.2106 245° Southwest 404 465 38,000  Level Los Angeles Center
Thu 10:36:22 PM 35.1969 -114.3614 245° Southwest 406 467 38,000  Level Los Angeles Center
Thu 10:37:24 PM 35.1486 -114.4869 245° Southwest 407 468 38,000  Level Los Angeles Center
Thu 10:38:26 PM 35.1008 -114.6108 245° Southwest 403 464 38,000  Level Los Angeles Center
Thu 10:39:28 PM 35.0539 -114.7350 245° Southwest 402 463 38,000  Level Los Angeles Center
Thu 10:40:29 PM 35.0050 -114.8608 245° Southwest 406 467 38,000  Level Los Angeles Center
Thu 10:41:31 PM 34.9572 -114.9847 245° Southwest 404 465 38,000 -242 Level Los Angeles Center
Thu 10:42:33 PM 34.9100 -115.1089 245° Southwest 403 464 37,500 -774 Descending Los Angeles Center
Thu 10:43:35 PM 34.8514 -115.2569 244° Southwest 402 463 36,400 -1,024 Descending Los Angeles Center
Thu 10:44:36 PM 34.8033 -115.3806 245° Southwest 403 464 35,400 -976 Descending Los Angeles Center
Thu 10:45:38 PM 34.7550 -115.5047 245° Southwest 405 466 34,400 -968 Descending Los Angeles Center
Thu 10:46:40 PM 34.7097 -115.6194 244° Southwest 401 461 33,400 -968 Descending Los Angeles Center
Thu 10:47:42 PM 34.6617 -115.7400 244° Southwest 399 459 32,400 -976 Descending Los Angeles Center
Thu 10:48:43 PM 34.6150 -115.8572 244° Southwest 389 448 31,400 -1,122 Descending Los Angeles Center
Thu 10:49:45 PM 34.5600 -115.9969 244° Southwest 384 442 30,100 -1,113 Descending Los Angeles Center
Thu 10:50:47 PM 34.5133 -116.1125 244° Southwest 382 440 29,100 -968 Descending Los Angeles Center
Thu 10:51:49 PM 34.4669 -116.2264 244° Southwest 380 437 28,100 -976 Descending Los Angeles Center
Thu 10:52:50 PM 34.4222 -116.3392 244° Southwest 372 428 27,100 -976 Descending Los Angeles Center
Thu 10:53:52 PM 34.3758 -116.4525 244° Southwest 375 432 26,100 -919 Descending Los Angeles Center
Thu 10:54:54 PM 34.3292 -116.5675 244° Southwest 380 437 25,200 -919 Descending Los Angeles Center
Thu 10:55:56 PM 34.2828 -116.6806 244° Southwest 375 432 24,200 -968 Descending Los Angeles Center
Thu 10:56:58 PM 34.2367 -116.7925 244° Southwest 372 428 23,200 -1,113 Descending Los Angeles Center
Thu 10:58:00 PM 34.1831 -116.9236 244° Southwest 364 419 21,900 -1,415 Descending Los Angeles Center
Thu 10:59:01 PM 34.1406 -117.0281 244° Southwest 348 400 20,300 -1,584 Descending Los Angeles Center
Thu 11:00:05 PM 34.1000 -117.1333 245° Southwest 327 376 18,600 -1,584 Descending Southern California TRACON
Thu 11:01:06 PM 34.0500 -117.2333 239° Southwest 318 366 17,000 -1,667 Descending Southern California TRACON
Thu 11:02:11 PM 34.0333 -117.3500 260° West 308 354 15,100 -1,632 Descending Southern California TRACON
Thu 11:03:11 PM 34.0333 -117.4500 270° West 297 342 13,600 -1,550 Descending Southern California TRACON
Thu 11:04:11 PM 34.0333 -117.5500 270° West 296 341 12,000 -1,438 Descending Southern California TRACON
Thu 11:05:12 PM 34.0333 -117.6500 270° West 287 330 10,700 -1,250 Descending Southern California TRACON
Thu 11:06:11 PM 34.0167 -117.7333 256° West 271 312 9,500 -1,316 Descending Southern California TRACON
Thu 11:07:06 PM 34.0167 -117.8167 270° West 267 307 8,200 -783 Descending Southern California TRACON
Thu 11:08:06 PM 34.0000 -117.9000 256° West 228 262 8,000 -500 Descending Southern California TRACON
Thu 11:09:06 PM 34.0000 -117.9500 270° West 188 216 7,200 -950 Descending Southern California TRACON
Thu 11:10:06 PM 33.9833 -118.0167 253° West 185 213 6,100 -1,000 Descending Southern California TRACON
Thu 11:11:06 PM 33.9833 -118.0833 270° West 176 203 5,200 -800 Descending Southern California TRACON
Thu 11:12:06 PM 33.9833 -118.1333 270° West 173 199 4,500 -733 Descending Southern California TRACON
Thu 11:12:36 PM 33.9767 -118.1611 254° West 175 201 4,100 -783 Descending Los Angeles Center
Thu 11:13:38 PM 33.9725 -118.2081 264° West 177 204 3,300 -919 Descending Los Angeles Center
Thu 11:14:40 PM 33.9644 -118.2800 262° West 180 207 2,200 -1,065 Descending Los Angeles Center
Thu 11:15:42 PM 33.9583 -118.3461 264° West 174 200 1,100 -927 Descending Los Angeles Center
Thu 11:16:43 PM 33.9539 -118.3933 264° West 157 181 300 -488 Descending Los Angeles Center
Thu 11:17:45 PM 33.9483 -118.4358 261° West 152 175 100 -194 Descending Los Angeles Center
Thu 11:19:00 PM 33.9425 -118.4081 259° West  Level Estimated

Login

Don't have an account? Register now (free) for customized features, flight alerts, and more!